Time;durP1;ratioP1;P1;durP2;ratioP2;P2;SDS_P1;SDS_P2;PMS_P1;PMS_P2;Temp;Humidity;BMP_temperature;BMP_pressure;BME280_temperature;BME280_humidity;BME280_pressure;Samples;Min_cycle;Max_cycle;Signal;HPM_P1;HPM_P2
2023/02/09 00:02:32;;;;;;;14.60;5.72;;;-0.20;99.90;;;;;;15129691;23;20028;-37
2023/02/09 00:08:35;;;;;;;12.02;6.60;;;-0.20;99.90;;;;;;15129440;23;20146;-37
2023/02/09 00:14:37;;;;;;;12.80;5.97;;;-0.30;99.90;;;;;;15104348;23;20085;-37
2023/02/09 00:20:39;;;;;;;13.20;6.03;;;-0.30;99.90;;;;;;15129178;23;20054;-37
2023/02/09 00:26:41;;;;;;;14.18;6.57;;;-0.30;99.90;;;;;;15127912;23;20452;-38
2023/02/09 00:32:43;;;;;;;12.30;6.10;;;-0.40;99.90;;;;;;15124240;23;20077;-36
2023/02/09 00:38:45;;;;;;;16.75;7.22;;;-0.40;99.90;;;;;;15126365;23;20141;-36
2023/02/09 00:44:46;;;;;;;16.90;7.35;;;-0.40;99.90;;;;;;15130485;23;20105;-37
2023/02/09 00:50:52;;;;;;;12.68;6.45;;;-0.40;99.90;;;;;;15125896;23;20825;-37
2023/02/09 00:56:54;;;;;;;13.93;6.80;;;-0.50;99.90;;;;;;15127747;23;20023;-36
2023/02/09 01:02:56;;;;;;;14.38;6.35;;;-0.50;99.90;;;;;;15127150;23;20427;-37
2023/02/09 01:08:59;;;;;;;13.88;6.85;;;-0.50;99.90;;;;;;15104406;23;20038;-37
2023/02/09 01:15:01;;;;;;;16.67;7.70;;;-0.50;99.90;;;;;;15130191;23;20031;-37
2023/02/09 01:21:12;;;;;;;15.13;7.00;;;-0.50;99.90;;;;;;15127745;23;20444;-37
2023/02/09 01:27:14;;;;;;;14.52;6.55;;;-0.50;99.90;;;;;;15127518;23;20329;-37
2023/02/09 01:33:16;;;;;;;15.70;7.82;;;-0.60;99.90;;;;;;15125769;23;20064;-36
2023/02/09 01:39:18;;;;;;;16.90;7.00;;;-0.60;99.90;;;;;;15125241;23;20154;-36
2023/02/09 01:45:31;;;;;;;13.85;6.47;;;-0.70;99.90;;;;;;15128675;23;20030;-36
2023/02/09 01:51:47;;;;;;;13.15;6.53;;;-0.80;99.90;;;;;;15128906;23;20652;-37
2023/02/09 01:58:15;;;;;;;14.52;7.40;;;-0.90;99.90;;;;;;15126370;23;20150;-36
2023/02/09 02:04:18;;;;;;;14.35;6.63;;;-1.00;99.90;;;;;;15121354;23;20426;-36
2023/02/09 02:10:20;;;;;;;13.88;6.55;;;-1.10;99.90;;;;;;15127766;23;20477;-36
2023/02/09 02:16:53;;;;;;;17.50;7.63;;;-1.10;99.90;;;;;;15124535;23;20018;-35
2023/02/09 02:23:07;;;;;;;13.18;6.93;;;-1.20;99.90;;;;;;15121726;23;20033;-36
2023/02/09 02:29:32;;;;;;;14.95;6.70;;;-1.40;99.90;;;;;;15128723;23;20030;-37
2023/02/09 02:35:48;;;;;;;12.40;6.45;;;-1.40;99.90;;;;;;15123078;23;20030;-36
2023/02/09 02:48:36;;;;;;;13.40;6.90;;;-1.30;99.90;;;;;;15128950;23;20677;-37
2023/02/09 02:55:01;;;;;;;13.90;6.30;;;-1.30;99.90;;;;;;15127570;23;20124;-37
2023/02/09 03:01:08;;;;;;;14.18;6.72;;;-1.30;99.90;;;;;;15124837;23;20108;-36
2023/02/09 03:07:10;;;;;;;14.60;6.50;;;-1.30;99.90;;;;;;15123031;23;20027;-36
2023/02/09 03:13:37;;;;;;;12.50;6.38;;;-1.30;99.90;;;;;;15122880;23;20034;-37
2023/02/09 03:19:56;;;;;;;13.50;6.55;;;-1.40;99.90;;;;;;15124917;23;20109;-36
2023/02/09 03:26:05;;;;;;;11.75;5.75;;;-1.30;99.90;;;;;;15052417;23;20037;-36
2023/02/09 03:32:08;;;;;;;12.85;6.68;;;-1.30;99.90;;;;;;15056079;23;20030;-36
2023/02/09 03:38:09;;;;;;;13.43;6.85;;;-1.20;99.90;;;;;;15055425;23;20033;-37
2023/02/09 03:44:26;;;;;;;17.90;7.25;;;-1.30;99.90;;;;;;15054347;23;20027;-37
2023/02/09 03:50:28;;;;;;;14.35;6.78;;;-1.30;99.90;;;;;;15061214;23;20026;-36
2023/02/09 03:56:30;;;;;;;14.57;6.32;;;-1.20;99.90;;;;;;15058683;23;20396;-37
2023/02/09 04:02:32;;;;;;;12.82;5.97;;;-1.20;99.90;;;;;;15044860;23;20023;-36
2023/02/09 04:08:35;;;;;;;12.13;5.70;;;-1.10;99.90;;;;;;15060309;23;20027;-36
2023/02/09 04:14:36;;;;;;;13.82;6.15;;;-1.10;99.90;;;;;;15056629;23;20027;-36
2023/02/09 04:20:38;;;;;;;14.85;6.20;;;-1.10;99.90;;;;;;15061179;23;20123;-36
2023/02/09 04:26:40;;;;;;;12.95;6.43;;;-1.10;99.90;;;;;;15123520;23;20026;-37
2023/02/09 04:32:42;;;;;;;11.82;5.78;;;-1.00;99.90;;;;;;15127051;23;20501;-37
2023/02/09 04:38:44;;;;;;;14.52;7.15;;;-1.00;99.90;;;;;;15124438;23;20093;-36
2023/02/09 04:44:46;;;;;;;16.13;6.68;;;-1.10;99.90;;;;;;15120400;23;20029;-36
2023/02/09 04:50:48;;;;;;;12.63;6.53;;;-1.10;99.90;;;;;;15129695;23;20376;-37
2023/02/09 04:59:33;;;;;;;14.45;6.88;;;-1.00;99.90;;;;;;15131237;23;20112;-37
2023/02/09 05:03:11;;;;;;;13.73;6.47;;;-1.10;99.90;;;;;;15124484;23;20891;-37
2023/02/09 05:09:13;;;;;;;14.00;6.68;;;-1.20;99.90;;;;;;15126946;23;20120;-35
2023/02/09 05:15:15;;;;;;;16.52;6.75;;;-1.20;99.90;;;;;;15131116;23;20113;-37
2023/02/09 05:21:17;;;;;;;17.25;6.95;;;-1.20;99.90;;;;;;15128413;23;20564;-37
2023/02/09 05:27:19;;;;;;;16.65;7.03;;;-1.20;99.90;;;;;;15129962;23;20137;-36
2023/02/09 05:33:22;;;;;;;14.02;6.95;;;-1.10;99.90;;;;;;15129963;23;20049;-36
2023/02/09 05:39:24;;;;;;;12.20;6.15;;;-1.10;99.90;;;;;;15126197;23;20833;-36
2023/02/09 05:45:26;;;;;;;14.20;6.65;;;-1.20;99.90;;;;;;15128068;23;20037;-36
2023/02/09 05:51:28;;;;;;;16.80;6.82;;;-1.20;99.90;;;;;;15127562;23;20057;-36
2023/02/09 05:57:30;;;;;;;15.18;6.53;;;-1.10;99.90;;;;;;15126250;23;20116;-37
2023/02/09 06:03:31;;;;;;;17.23;7.07;;;-1.10;99.90;;;;;;15121485;23;20050;-36
2023/02/09 06:09:33;;;;;;;16.23;7.30;;;-1.20;99.90;;;;;;15099854;23;20057;-37
2023/02/09 06:15:35;;;;;;;14.70;7.00;;;-1.30;99.90;;;;;;15124472;23;20026;-36
2023/02/09 06:21:37;;;;;;;14.15;7.35;;;-1.40;99.90;;;;;;15125140;23;20518;-36
2023/02/09 06:27:39;;;;;;;14.50;6.75;;;-1.40;99.90;;;;;;15124617;23;20065;-36
2023/02/09 06:33:41;;;;;;;12.23;6.60;;;-1.30;99.90;;;;;;15097168;23;20058;-36
2023/02/09 06:39:43;;;;;;;16.17;6.85;;;-1.10;99.90;;;;;;15122561;23;20062;-37
2023/02/09 06:45:45;;;;;;;14.45;7.05;;;-1.10;99.90;;;;;;15096703;23;20033;-36
2023/02/09 06:51:47;;;;;;;15.23;6.45;;;-1.20;99.90;;;;;;15126608;23;20034;-37
2023/02/09 06:57:49;;;;;;;15.73;6.72;;;-1.30;99.90;;;;;;15126093;23;20046;-37
2023/02/09 07:03:51;;;;;;;14.93;6.60;;;-1.30;99.90;;;;;;15119697;23;20109;-36
2023/02/09 07:09:53;;;;;;;16.42;7.38;;;-1.30;99.90;;;;;;15121919;23;20027;-36
2023/02/09 07:15:56;;;;;;;14.90;6.85;;;-1.30;99.90;;;;;;15123233;23;20173;-36
2023/02/09 07:21:58;;;;;;;15.60;7.32;;;-1.30;99.90;;;;;;15124641;23;20514;-37
2023/02/09 07:27:59;;;;;;;14.48;7.35;;;-1.20;99.90;;;;;;15126134;23;20027;-37
2023/02/09 07:34:01;;;;;;;14.07;6.45;;;-1.20;99.90;;;;;;15116861;23;20034;-36
2023/02/09 07:40:03;;;;;;;17.05;7.45;;;-1.20;99.90;;;;;;15116420;23;20022;-36
2023/02/09 07:46:07;;;;;;;15.25;7.57;;;-1.00;99.90;;;;;;15122642;23;20026;-36
2023/02/09 07:52:09;;;;;;;15.10;7.28;;;-0.90;99.90;;;;;;15122130;23;20046;-36
2023/02/09 07:58:10;;;;;;;17.25;7.45;;;-0.80;99.90;;;;;;15124387;23;20065;-36
2023/02/09 08:04:12;;;;;;;15.18;7.25;;;-0.70;99.90;;;;;;15122333;23;20561;-37
2023/02/09 08:10:16;;;;;;;17.35;6.53;;;-0.60;99.90;;;;;;15121986;23;20120;-37
2023/02/09 08:16:21;;;;;;;11.70;6.18;;;-0.50;99.90;;;;;;15125834;23;20102;-36
2023/02/09 08:22:27;;;;;;;14.50;6.75;;;-0.30;99.90;;;;;;15118910;23;20022;-36
2023/02/09 08:28:29;;;;;;;16.60;6.68;;;-0.20;99.90;;;;;;15127424;23;20029;-37
2023/02/09 08:34:44;;;;;;;14.80;6.68;;;-0.10;99.90;;;;;;15128516;23;20031;-36
2023/02/09 08:40:46;;;;;;;12.82;6.80;;;-0.10;99.90;;;;;;15123077;23;20026;-37
2023/02/09 08:46:48;;;;;;;14.00;6.35;;;-0.10;99.90;;;;;;15121916;23;20105;-36
2023/02/09 08:52:50;;;;;;;14.98;6.97;;;0.00;99.90;;;;;;15129439;23;20483;-36
2023/02/09 08:58:52;;;;;;;13.13;7.20;;;0.20;99.90;;;;;;15126267;23;20467;-36
2023/02/09 09:04:54;;;;;;;13.82;6.50;;;0.30;99.90;;;;;;15121217;23;20031;-36
2023/02/09 09:10:56;;;;;;;16.67;7.10;;;0.40;99.90;;;;;;15123360;23;20090;-37
2023/02/09 09:16:59;;;;;;;15.15;7.47;;;0.50;99.90;;;;;;15127557;23;20019;-36
2023/02/09 09:23:01;;;;;;;12.73;6.10;;;0.70;99.90;;;;;;15126450;23;20031;-36
2023/02/09 09:29:03;;;;;;;14.38;7.10;;;1.00;99.90;;;;;;15124760;23;20026;-36
2023/02/09 09:35:05;;;;;;;15.20;7.78;;;1.10;99.90;;;;;;15125810;23;20105;-36
2023/02/09 09:41:22;;;;;;;17.25;7.78;;;1.10;99.90;;;;;;15129470;23;20591;-36
2023/02/09 09:47:38;;;;;;;16.85;8.07;;;1.20;99.90;;;;;;15127398;23;20022;-36
2023/02/09 09:53:43;;;;;;;15.48;7.85;;;1.10;99.90;;;;;;15127382;23;20041;-36
2023/02/09 09:59:45;;;;;;;18.02;7.53;;;1.10;99.90;;;;;;15128782;23;20488;-36
2023/02/09 10:05:57;;;;;;;14.73;7.82;;;1.30;99.90;;;;;;15124977;23;20063;-36
2023/02/09 10:12:11;;;;;;;14.40;7.28;;;1.40;99.90;;;;;;15129183;23;20467;-36
2023/02/09 10:18:16;;;;;;;15.97;7.53;;;1.40;99.90;;;;;;15124343;23;20022;-36
2023/02/09 10:24:28;;;;;;;14.95;8.00;;;1.50;99.90;;;;;;15125701;23;20030;-36
2023/02/09 10:30:31;;;;;;;16.42;7.95;;;1.60;99.90;;;;;;15124862;23;20034;-36
2023/02/09 10:36:38;;;;;;;16.60;8.10;;;1.80;99.90;;;;;;15097359;23;20018;-36
2023/02/09 10:42:51;;;;;;;15.82;8.40;;;1.80;99.90;;;;;;15090751;23;20054;-36
2023/02/09 10:48:54;;;;;;;16.10;7.70;;;1.70;99.90;;;;;;15121275;23;20062;-36
2023/02/09 10:55:01;;;;;;;18.33;8.00;;;1.70;99.90;;;;;;15102804;23;20597;-36
2023/02/09 11:01:20;;;;;;;13.00;7.07;;;1.80;99.90;;;;;;15125556;23;20097;-36
2023/02/09 11:07:26;;;;;;;15.70;7.43;;;2.10;99.90;;;;;;15119815;23;20029;-37
2023/02/09 11:13:31;;;;;;;17.52;7.97;;;2.30;99.90;;;;;;15103260;23;20037;-37
2023/02/09 11:20:03;;;;;;;15.27;7.32;;;2.60;99.90;;;;;;15114987;23;20018;-37
2023/02/09 11:26:17;;;;;;;13.13;7.40;;;2.70;99.90;;;;;;15122990;23;20023;-37
2023/02/09 11:32:29;;;;;;;17.33;8.03;;;3.10;99.90;;;;;;15122859;23;20097;-38
2023/02/09 11:38:54;;;;;;;18.23;7.82;;;3.30;99.90;;;;;;15126859;23;20029;-37
2023/02/09 11:45:03;;;;;;;16.02;7.38;;;3.40;99.90;;;;;;15123309;23;20479;-37
2023/02/09 11:51:21;;;;;;;14.90;7.97;;;3.60;99.90;;;;;;15127071;23;20026;-37
2023/02/09 11:57:35;;;;;;;16.30;7.70;;;3.70;99.90;;;;;;15104790;23;20392;-36
2023/02/09 12:03:41;;;;;;;16.85;7.63;;;3.80;99.90;;;;;;15103949;23;20026;-37
2023/02/09 12:09:58;;;;;;;15.77;7.60;;;3.60;99.90;;;;;;15130651;23;20046;-37
2023/02/09 12:16:14;;;;;;;15.60;8.55;;;3.60;99.90;;;;;;15128921;23;20539;-37
2023/02/09 12:22:35;;;;;;;16.27;8.32;;;3.80;99.90;;;;;;15103754;23;20019;-37
2023/02/09 12:28:42;;;;;;;15.98;8.40;;;3.90;99.90;;;;;;15130331;23;20026;-36
2023/02/09 12:34:50;;;;;;;15.27;8.60;;;4.20;99.90;;;;;;15121332;23;20026;-37
2023/02/09 12:41:04;;;;;;;15.90;7.70;;;4.10;99.90;;;;;;15122419;23;20539;-37
2023/02/09 12:47:26;;;;;;;;;;;4.10;99.90;;;;;;15129429;23;20097;-37
2023/02/09 12:53:38;;;;;;;17.67;7.82;;;4.00;99.90;;;;;;15129399;23;19992;-37
2023/02/09 12:59:50;;;;;;;16.70;8.35;;;3.90;99.90;;;;;;15128929;23;20348;-37
2023/02/09 13:05:58;;;;;;;15.05;8.25;;;4.10;99.90;;;;;;15096645;23;20045;-37
2023/02/09 13:12:18;;;;;;;17.33;8.82;;;4.00;99.90;;;;;;15127763;23;20022;-38
2023/02/09 13:18:51;;;;;;;16.52;8.10;;;4.00;99.90;;;;;;15125364;23;20045;-37
2023/02/09 13:25:11;;;;;;;14.80;7.55;;;4.10;99.90;;;;;;15126447;23;20030;-37
2023/02/09 13:31:24;;;;;;;19.90;7.97;;;4.10;99.90;;;;;;15102933;23;20388;-37
2023/02/09 13:37:47;;;;;;;17.13;8.27;;;4.10;99.90;;;;;;15122710;23;20022;-37
2023/02/09 13:43:50;;;;;;;17.33;8.63;;;4.00;99.90;;;;;;15099520;23;20018;-37
2023/02/09 13:50:08;;;;;;;16.00;8.07;;;3.90;99.90;;;;;;15130550;23;20030;-37
2023/02/09 13:56:14;;;;;;;15.13;7.60;;;3.80;99.90;;;;;;15100860;23;20128;-37
2023/02/09 14:02:21;;;;;;;16.35;8.65;;;3.80;99.90;;;;;;15124966;23;20363;-37
2023/02/09 14:08:24;;;;;;;14.93;8.23;;;3.90;99.90;;;;;;15116635;23;20022;-37
2023/02/09 14:21:12;;;;;;;16.25;7.78;;;3.70;99.90;;;;;;15126982;23;20150;-37
2023/02/09 14:27:26;;;;;;;15.05;6.80;;;3.70;99.90;;;;;;15126791;23;20149;-37
2023/02/09 14:33:32;;;;;;;12.70;7.05;;;3.60;99.90;;;;;;15126881;23;20077;-37
2023/02/09 14:39:59;;;;;;;15.57;7.20;;;3.50;99.90;;;;;;15117565;23;20431;-38
2023/02/09 14:46:01;;;;;;;15.23;6.75;;;3.50;99.90;;;;;;15121463;23;20038;-37
2023/02/09 14:52:10;;;;;;;14.93;7.13;;;3.50;99.90;;;;;;15121776;23;20022;-37
2023/02/09 14:58:19;;;;;;;28.13;10.18;;;3.50;99.90;;;;;;15125121;23;20026;-37
2023/02/09 15:04:21;;;;;;;12.10;7.00;;;3.40;99.90;;;;;;15125684;23;20396;-37
2023/02/09 15:10:28;;;;;;;12.73;7.18;;;3.30;99.90;;;;;;15100401;23;20026;-37
2023/02/09 15:16:31;;;;;;;14.75;7.10;;;3.30;99.90;;;;;;15124570;23;20026;-37
2023/02/09 15:22:33;;;;;;;13.25;7.07;;;3.30;99.90;;;;;;15095745;23;20129;-38
2023/02/09 15:28:35;;;;;;;12.23;6.25;;;3.20;99.90;;;;;;15126315;23;20105;-37
2023/02/09 15:34:38;;;;;;;16.08;7.57;;;3.10;99.90;;;;;;15121682;23;20063;-37
2023/02/09 15:53:30;;;;;;;16.23;7.15;;;2.80;99.90;;;;;;15127794;23;20104;-37
2023/02/09 15:59:32;;;;;;;12.52;6.70;;;2.60;99.90;;;;;;15098398;23;20026;-37
2023/02/09 16:05:34;;;;;;;12.77;7.18;;;2.50;99.90;;;;;;15117766;23;20026;-37
2023/02/09 16:11:39;;;;;;;14.10;7.43;;;2.40;99.90;;;;;;15123853;23;20097;-37
2023/02/09 16:17:41;;;;;;;;;;;2.30;99.90;;;;;;15123836;23;20129;-37
2023/02/09 16:23:46;;;;;;;13.10;6.57;;;2.30;99.90;;;;;;15122926;23;19921;-37
2023/02/09 16:29:48;;;;;;;16.98;7.78;;;2.10;99.90;;;;;;15099229;23;20087;-37
2023/02/09 16:35:57;;;;;;;17.33;8.02;;;2.10;99.90;;;;;;15118717;23;20105;-37
2023/02/09 16:41:59;;;;;;;14.13;8.10;;;2.00;99.90;;;;;;15125787;23;20467;-36
2023/02/09 16:48:02;;;;;;;17.25;9.65;;;1.90;99.90;;;;;;15130067;23;20070;-37
2023/02/09 16:54:04;;;;;;;17.33;8.68;;;1.70;99.90;;;;;;15127634;23;20034;-37
2023/02/09 17:00:07;;;;;;;18.00;8.70;;;1.30;99.90;;;;;;15126833;23;20463;-36
2023/02/09 17:06:16;;;;;;;17.10;8.48;;;1.50;99.90;;;;;;15063537;23;20019;-36
2023/02/09 17:12:18;;;;;;;13.88;7.55;;;1.60;99.90;;;;;;15128986;23;20101;-37
2023/02/09 17:18:23;;;;;;;17.35;8.30;;;1.60;99.90;;;;;;15125921;23;20080;-37
2023/02/09 17:24:25;;;;;;;17.35;8.73;;;1.70;99.90;;;;;;15126733;23;20519;-36
2023/02/09 17:30:30;;;;;;;17.67;7.78;;;1.70;99.90;;;;;;15131474;23;20033;-37
2023/02/09 17:36:32;;;;;;;;;;;1.80;99.90;;;;;;15127423;23;20472;-36
2023/02/09 17:42:36;;;;;;;16.48;8.25;;;1.80;99.90;;;;;;15127779;23;20357;-37
2023/02/09 17:48:38;;;;;;;18.80;8.27;;;1.80;99.90;;;;;;15126873;23;20057;-37
2023/02/09 17:54:40;;;;;;;14.85;8.10;;;1.90;99.90;;;;;;15103664;23;20531;-36
2023/02/09 18:00:43;;;;;;;16.60;8.45;;;2.00;99.90;;;;;;15129727;23;20062;-36
2023/02/09 18:06:45;;;;;;;16.20;8.55;;;2.10;99.90;;;;;;15128906;23;20027;-37
2023/02/09 18:12:48;;;;;;;16.65;7.72;;;2.10;99.90;;;;;;15129130;23;20018;-36
2023/02/09 18:18:50;;;;;;;17.73;8.05;;;2.30;99.90;;;;;;15125523;23;20027;-37
2023/02/09 18:24:58;;;;;;;17.25;8.15;;;2.50;99.90;;;;;;15126625;23;20034;-37
2023/02/09 18:31:00;;;;;;;17.98;8.15;;;2.50;99.90;;;;;;15124848;23;20030;-37
2023/02/09 18:37:02;;;;;;;17.00;8.50;;;2.70;99.90;;;;;;15125751;23;20668;-35
2023/02/09 18:43:06;;;;;;;15.13;8.20;;;2.70;99.90;;;;;;15127347;23;20025;-36
2023/02/09 18:49:11;;;;;;;16.92;8.77;;;2.70;99.90;;;;;;15128259;23;20470;-37
2023/02/09 18:55:13;;;;;;;19.75;9.90;;;2.80;99.90;;;;;;15098427;23;20117;-37
2023/02/09 19:01:19;;;;;;;18.58;10.07;;;2.80;99.90;;;;;;15123965;23;20130;-37
2023/02/09 19:07:21;;;;;;;22.45;9.57;;;2.70;99.90;;;;;;15125404;23;20384;-36
2023/02/09 19:13:23;;;;;;;16.98;8.73;;;2.70;99.90;;;;;;15102051;23;20359;-36
2023/02/09 19:19:25;;;;;;;18.33;9.50;;;2.70;99.90;;;;;;15125795;23;20053;-37
2023/02/09 19:25:28;;;;;;;21.17;10.23;;;2.70;99.90;;;;;;15126586;23;20034;-36
2023/02/09 19:31:30;;;;;;;19.10;8.95;;;2.70;99.90;;;;;;15127893;23;20050;-37
2023/02/09 19:37:32;;;;;;;19.00;9.95;;;2.70;99.90;;;;;;15125342;23;20031;-36
2023/02/09 19:43:34;;;;;;;21.75;9.85;;;2.70;99.90;;;;;;15123022;23;20022;-36
2023/02/09 19:49:37;;;;;;;22.60;10.05;;;2.70;99.90;;;;;;15126123;23;20029;-36
2023/02/09 19:55:39;;;;;;;19.88;9.52;;;2.70;99.90;;;;;;15127475;23;20170;-37
2023/02/09 20:01:42;;;;;;;20.15;10.00;;;2.70;99.90;;;;;;15125794;23;20445;-37
2023/02/09 20:07:44;;;;;;;20.02;10.88;;;2.50;99.90;;;;;;15118592;23;20031;-37
2023/02/09 20:13:50;;;;;;;21.63;10.10;;;2.40;99.90;;;;;;15123628;23;20364;-36
2023/02/09 20:19:52;;;;;;;22.35;10.43;;;2.50;99.90;;;;;;15133622;23;20450;-37
2023/02/09 20:25:54;;;;;;;22.65;11.23;;;2.50;99.90;;;;;;15130245;23;20363;-36
2023/02/09 20:31:56;;;;;;;22.55;12.55;;;2.50;99.90;;;;;;15128729;23;20101;-37
2023/02/09 20:37:58;;;;;;;22.58;12.40;;;2.40;99.90;;;;;;15128320;23;20019;-36
2023/02/09 20:50:21;;;;;;;26.05;12.57;;;2.30;99.90;;;;;;15131884;23;20030;-36
2023/02/09 20:56:24;;;;;;;29.05;14.10;;;2.20;99.90;;;;;;15129751;23;20488;-37
2023/02/09 21:02:26;;;;;;;27.25;14.45;;;2.20;99.90;;;;;;15108382;23;20026;-37
2023/02/09 21:08:28;;;;;;;24.10;13.80;;;2.20;99.90;;;;;;15132706;23;20033;-37
2023/02/09 21:14:34;;;;;;;27.33;14.75;;;2.10;99.90;;;;;;15132326;23;20030;-37
2023/02/09 21:20:44;;;;;;;29.75;15.60;;;2.20;99.90;;;;;;15131057;23;20033;-37
2023/02/09 21:26:46;;;;;;;27.52;15.75;;;2.20;99.90;;;;;;15132300;23;20023;-37
2023/02/09 21:32:49;;;;;;;33.50;15.60;;;2.20;99.90;;;;;;15129618;23;20483;-37
2023/02/09 21:38:51;;;;;;;27.10;15.05;;;2.20;99.90;;;;;;15130349;23;20026;-35
2023/02/09 21:44:54;;;;;;;31.13;15.77;;;2.10;99.90;;;;;;15130069;23;20030;-37
2023/02/09 21:50:56;;;;;;;31.17;16.40;;;2.20;99.90;;;;;;15108113;23;20025;-36
2023/02/09 21:57:00;;;;;;;30.80;15.65;;;2.20;99.90;;;;;;15130877;23;20146;-37
2023/02/09 22:03:02;;;;;;;27.67;14.75;;;2.20;99.90;;;;;;15130309;23;20023;-37
2023/02/09 22:09:05;;;;;;;27.60;15.02;;;2.20;99.90;;;;;;15128548;23;20031;-37
2023/02/09 22:15:08;;;;;;;28.02;14.30;;;2.20;99.90;;;;;;15104781;23;20034;-37
2023/02/09 22:21:10;;;;;;;33.75;15.93;;;2.10;99.90;;;;;;15129710;23;20083;-37
2023/02/09 22:27:12;;;;;;;29.50;16.42;;;2.10;99.90;;;;;;15130000;23;20392;-37
2023/02/09 22:33:15;;;;;;;30.52;16.88;;;2.10;99.90;;;;;;15105537;23;20446;-37
2023/02/09 22:39:17;;;;;;;30.50;16.23;;;2.10;99.90;;;;;;15127466;23;20026;-37
2023/02/09 22:45:20;;;;;;;31.75;15.98;;;2.20;99.90;;;;;;15130379;23;20426;-37
2023/02/09 22:51:24;;;;;;;31.63;17.35;;;2.20;99.90;;;;;;15105342;23;20028;-37
2023/02/09 22:57:26;;;;;;;32.33;16.77;;;2.20;99.90;;;;;;15102111;23;20045;-38
2023/02/09 23:03:29;;;;;;;36.75;17.80;;;2.20;99.90;;;;;;15126158;23;20163;-36
2023/02/09 23:09:30;;;;;;;37.22;17.23;;;2.30;99.90;;;;;;15101699;23;20117;-37
2023/02/09 23:15:33;;;;;;;36.83;17.77;;;2.30;99.90;;;;;;15101950;23;20030;-36
2023/02/09 23:21:38;;;;;;;33.97;17.95;;;2.40;99.90;;;;;;15130506;23;20371;-37
2023/02/09 23:27:40;;;;;;;35.28;18.63;;;2.40;99.90;;;;;;15107074;23;20022;-37
2023/02/09 23:33:44;;;;;;;38.55;19.65;;;2.40;99.90;;;;;;15104930;23;20181;-37
2023/02/09 23:39:46;;;;;;;37.33;19.37;;;2.40;99.90;;;;;;15096100;23;20029;-36
2023/02/09 23:45:48;;;;;;;35.72;18.65;;;2.50;99.90;;;;;;15104057;23;20211;-37
2023/02/09 23:51:51;;;;;;;42.83;19.15;;;2.60;99.90;;;;;;15131869;23;20030;-37
2023/02/09 23:57:53;;;;;;;41.45;20.05;;;2.60;99.90;;;;;;15134659;23;20022;-37
